Time;durP1;ratioP1;P1;durP2;ratioP2;P2;SDS_P1;SDS_P2;PMS_P1;PMS_P2;Temp;Humidity;BMP_temperature;BMP_pressure;BME280_temperature;BME280_humidity;BME280_pressure;Samples;Min_cycle;Max_cycle;Signal;HPM_P1;HPM_P2
2021/11/11 00:02:01;;;;;;;32.60;17.65;;;;;;;6.13;72.78;100727.78;5015396;28;20042;-64
2021/11/11 00:04:34;;;;;;;33.78;19.80;;;;;;;6.14;72.52;100726.09;4999526;28;20463;-63
2021/11/11 00:07:04;;;;;;;32.20;18.27;;;;;;;6.11;72.14;100721.66;4999374;28;20061;-63
2021/11/11 00:09:36;;;;;;;30.98;18.17;;;;;;;6.09;72.18;100721.63;4999883;28;20041;-63
2021/11/11 00:12:05;;;;;;;33.33;19.23;;;;;;;6.10;72.56;100737.94;5015862;28;20088;-63
2021/11/11 00:14:36;;;;;;;30.92;17.83;;;;;;;6.09;72.72;100742.22;4999533;28;20048;-64
2021/11/11 00:17:06;;;;;;;27.92;17.02;;;;;;;6.09;72.31;100734.47;4999637;28;20115;-63
2021/11/11 00:19:35;;;;;;;29.88;17.90;;;;;;;6.08;72.45;100735.28;4998975;28;20058;-63
2021/11/11 00:22:08;;;;;;;31.98;18.05;;;;;;;6.07;72.54;100733.53;4999561;28;20096;-63
2021/11/11 00:24:39;;;;;;;32.75;17.27;;;;;;;6.04;71.79;100733.38;4999489;28;20092;-63
2021/11/11 00:27:10;;;;;;;28.80;17.05;;;;;;;6.04;72.28;100714.50;4999100;28;20045;-63
2021/11/11 00:29:40;;;;;;;33.33;17.25;;;;;;;6.02;71.98;100717.00;5015067;28;20413;-63
2021/11/11 00:32:12;;;;;;;30.85;16.27;;;;;;;6.03;72.50;100728.19;4998777;28;20132;-63
2021/11/11 00:34:41;;;;;;;29.77;15.93;;;;;;;6.01;72.17;100722.94;4999374;28;20477;-63
2021/11/11 00:37:09;;;;;;;30.10;16.75;;;;;;;6.00;72.37;100715.16;4998467;28;20037;-63
2021/11/11 00:39:37;;;;;;;30.65;16.45;;;;;;;6.00;72.49;100710.03;4999363;28;20044;-63
2021/11/11 00:42:09;;;;;;;31.05;18.45;;;;;;;6.02;71.96;100705.84;5015190;28;20467;-63
2021/11/11 00:44:38;;;;;;;26.75;16.45;;;;;;;6.02;72.31;100706.69;4998462;28;20034;-64
2021/11/11 00:47:09;;;;;;;30.25;16.65;;;;;;;6.04;72.70;100704.22;4999599;28;20038;-63
2021/11/11 00:49:37;;;;;;;24.10;16.75;;;;;;;6.03;72.81;100700.75;4998527;28;20120;-63
2021/11/11 00:52:11;;;;;;;25.15;16.75;;;;;;;6.03;72.62;100697.31;5014889;28;20035;-65
2021/11/11 00:54:41;;;;;;;27.95;16.58;;;;;;;6.02;72.73;100687.81;5015155;28;20038;-63
2021/11/11 00:57:10;;;;;;;28.90;16.70;;;;;;;6.00;72.59;100695.44;5014889;28;20038;-63
2021/11/11 00:59:42;;;;;;;28.52;16.13;;;;;;;6.00;72.00;100695.44;4998485;28;20030;-63
2021/11/11 01:02:13;;;;;;;33.40;16.90;;;;;;;5.99;72.68;100693.69;4996128;28;20042;-63
2021/11/11 01:04:42;;;;;;;24.83;16.13;;;;;;;5.99;72.73;100687.66;4998589;28;20049;-64
2021/11/11 01:07:13;;;;;;;28.73;17.67;;;;;;;5.99;72.03;100685.06;4997600;28;20049;-64
2021/11/11 01:09:44;;;;;;;28.88;18.40;;;;;;;5.96;72.14;100683.25;4998338;28;20030;-63
2021/11/11 01:12:16;;;;;;;35.78;17.98;;;;;;;5.95;72.35;100681.50;4998584;28;20046;-63
2021/11/11 01:14:44;;;;;;;31.13;18.35;;;;;;;5.95;72.31;100686.63;4998690;28;20041;-63
2021/11/11 01:17:12;;;;;;;27.13;17.75;;;;;;;5.93;71.98;100689.13;5014719;28;20045;-64
2021/11/11 01:19:41;;;;;;;35.17;19.05;;;;;;;5.91;71.87;100684.72;4998150;28;20042;-63
2021/11/11 01:22:09;;;;;;;30.40;17.52;;;;;;;5.92;72.66;100683.91;4997421;28;20045;-64
2021/11/11 01:24:39;;;;;;;25.98;16.98;;;;;;;5.88;72.62;100675.19;4998015;28;20478;-63
2021/11/11 01:27:09;;;;;;;26.10;17.17;;;;;;;5.89;72.37;100669.22;4998404;28;20096;-63
2021/11/11 01:29:37;;;;;;;25.90;15.90;;;;;;;5.90;72.01;100672.66;4997714;28;20084;-63
2021/11/11 01:32:09;;;;;;;29.30;17.75;;;;;;;5.86;72.67;100661.38;5014220;28;20117;-63
2021/11/11 01:34:40;;;;;;;35.13;17.30;;;;;;;5.87;71.72;100664.81;4997810;28;20037;-63
2021/11/11 01:37:12;;;;;;;28.83;16.55;;;;;;;5.88;71.78;100667.47;5014004;28;20073;-63
2021/11/11 01:39:41;;;;;;;28.67;18.10;;;;;;;5.89;71.99;100658.94;4998227;28;20042;-63
2021/11/11 01:42:07;;;;;;;30.02;17.17;;;;;;;5.88;72.13;100649.47;5014147;28;20042;-63
2021/11/11 01:44:35;;;;;;;26.75;16.40;;;;;;;5.88;72.38;100653.72;4997528;28;20141;-63
2021/11/11 01:47:07;;;;;;;26.90;16.63;;;;;;;5.87;72.29;100658.00;4997751;28;20077;-63
2021/11/11 01:49:40;;;;;;;24.60;15.70;;;;;;;5.86;71.92;100661.38;4998433;28;20030;-63
2021/11/11 01:52:12;;;;;;;26.92;16.10;;;;;;;5.85;72.51;100658.72;4997644;28;20064;-63
2021/11/11 01:54:43;;;;;;;27.67;16.10;;;;;;;5.83;72.22;100656.06;4997839;28;20405;-63
2021/11/11 01:57:16;;;;;;;25.88;14.95;;;;;;;5.83;72.40;100658.66;4997389;28;20038;-63
2021/11/11 01:59:42;;;;;;;25.65;15.57;;;;;;;5.81;71.95;100654.25;4997408;28;20049;-64
2021/11/11 02:02:23;;;;;;;23.50;15.98;;;;;;;5.80;71.66;100661.06;4997105;28;20120;-63
2021/11/11 02:04:57;;;;;;;21.08;14.65;;;;;;;5.79;71.89;100656.75;5013517;28;20417;-63
2021/11/11 02:07:27;;;;;;;24.08;15.63;;;;;;;5.78;72.38;100658.44;4997393;28;20045;-63
2021/11/11 02:09:55;;;;;;;26.05;15.50;;;;;;;5.77;71.92;100660.94;4997244;28;20474;-63
2021/11/11 02:12:33;;;;;;;26.02;16.10;;;;;;;5.77;72.19;100663.50;4997047;28;20405;-63
2021/11/11 02:14:58;;;;;;;22.67;15.15;;;;;;;5.74;72.45;100661.69;4997275;28;20026;-63
2021/11/11 02:17:30;;;;;;;27.90;16.40;;;;;;;5.72;72.00;100653.00;5013169;28;20489;-63
2021/11/11 02:20:05;;;;;;;33.45;17.27;;;;;;;5.71;72.46;100661.53;5012774;28;20034;-63
2021/11/11 02:22:36;;;;;;;23.80;16.15;;;;;;;5.71;71.66;100656.41;5013171;28;20045;-63
2021/11/11 02:25:07;;;;;;;23.52;15.20;;;;;;;5.70;71.75;100652.06;4997107;28;20026;-63
2021/11/11 02:27:38;;;;;;;22.70;14.73;;;;;;;5.69;71.93;100652.00;4997649;28;20088;-63
2021/11/11 02:30:06;;;;;;;24.58;16.02;;;;;;;5.68;72.40;100656.28;5012918;28;20041;-64
2021/11/11 02:32:36;;;;;;;26.58;16.08;;;;;;;5.68;71.95;100663.09;5013353;28;20041;-63
2021/11/11 02:35:09;;;;;;;25.30;15.57;;;;;;;5.69;71.67;100667.44;4996803;28;20061;-63
2021/11/11 02:37:40;;;;;;;22.97;15.13;;;;;;;5.69;72.29;100668.31;4996518;28;20038;-63
2021/11/11 02:40:21;;;;;;;22.17;15.73;;;;;;;5.69;72.33;100667.44;4997021;28;20038;-64
2021/11/11 02:42:48;;;;;;;23.45;14.95;;;;;;;5.68;71.85;100664.00;5013389;28;20034;-63
2021/11/11 02:45:17;;;;;;;25.70;13.77;;;;;;;5.68;71.73;100660.53;4996661;28;20135;-63
2021/11/11 02:47:50;;;;;;;24.35;14.25;;;;;;;5.66;71.74;100657.91;4996029;28;20044;-63
2021/11/11 02:50:21;;;;;;;27.10;15.30;;;;;;;5.66;71.72;100663.03;5013087;28;20489;-63
2021/11/11 02:52:51;;;;;;;29.58;15.02;;;;;;;5.64;72.30;100657.81;5013564;28;20519;-63
2021/11/11 02:55:21;;;;;;;26.58;15.52;;;;;;;5.66;71.84;100664.72;4996220;28;20547;-63
2021/11/11 02:57:50;;;;;;;22.08;13.95;;;;;;;5.63;71.73;100662.91;4996548;28;20041;-63
2021/11/11 03:00:25;;;;;;;22.00;13.95;;;;;;;5.61;72.39;100660.22;4996484;28;20477;-64
2021/11/11 03:02:55;;;;;;;22.27;15.43;;;;;;;5.60;71.64;100666.22;4996472;28;20053;-63
2021/11/11 03:05:29;;;;;;;27.13;16.85;;;;;;;5.60;71.69;100665.31;5012581;28;20038;-63
2021/11/11 03:07:55;;;;;;;22.75;14.55;;;;;;;5.59;72.59;100666.13;5012634;28;20037;-63
2021/11/11 03:10:28;;;;;;;21.02;16.20;;;;;;;5.59;71.95;100660.97;4996444;28;20110;-63
2021/11/11 03:12:57;;;;;;;27.27;15.38;;;;;;;5.59;72.34;100656.75;4996218;28;20390;-63
2021/11/11 03:15:26;;;;;;;23.25;15.63;;;;;;;5.58;72.38;100659.22;4996401;28;20315;-63
2021/11/11 03:17:55;;;;;;;22.00;15.55;;;;;;;5.57;71.51;100658.34;4996771;28;20038;-64
2021/11/11 03:20:24;;;;;;;26.60;14.77;;;;;;;5.56;71.97;100663.41;4996488;28;20042;-63
2021/11/11 03:22:55;;;;;;;21.15;13.65;;;;;;;5.55;71.48;100667.69;5012325;28;20044;-63
2021/11/11 03:25:26;;;;;;;21.77;15.73;;;;;;;5.55;71.80;100669.34;4996693;28;20037;-63
2021/11/11 03:27:55;;;;;;;27.33;14.52;;;;;;;5.54;71.60;100672.75;4996007;28;20493;-63
2021/11/11 03:30:25;;;;;;;21.42;14.80;;;;;;;5.52;71.83;100675.25;4997816;28;20500;-63
2021/11/11 03:32:57;;;;;;;24.27;15.13;;;;;;;5.52;71.83;100672.69;5016606;28;20038;-64
2021/11/11 03:35:29;;;;;;;24.73;15.25;;;;;;;5.49;71.76;100676.00;5000019;28;20088;-63
2021/11/11 03:38:02;;;;;;;23.83;15.27;;;;;;;5.48;71.78;100671.66;5016831;28;20037;-63
2021/11/11 03:40:36;;;;;;;24.35;14.95;;;;;;;5.47;71.73;100669.00;5000529;28;20172;-64
2021/11/11 03:43:03;;;;;;;21.85;14.27;;;;;;;5.47;71.94;100671.56;5000174;28;20524;-63
2021/11/11 03:45:32;;;;;;;22.38;14.15;;;;;;;5.46;71.52;100665.56;4999742;28;20069;-63
2021/11/11 03:48:03;;;;;;;24.40;14.60;;;;;;;5.48;71.79;100668.19;5016075;28;20034;-63
2021/11/11 03:50:35;;;;;;;22.98;15.20;;;;;;;5.46;71.88;100656.97;5000000;28;20051;-63
2021/11/11 03:53:04;;;;;;;23.67;15.18;;;;;;;5.44;71.88;100656.03;4999918;28;20046;-63
2021/11/11 03:55:32;;;;;;;21.42;13.82;;;;;;;5.43;72.12;100657.69;5017386;28;20363;-62
2021/11/11 03:58:03;;;;;;;23.42;15.52;;;;;;;5.43;71.59;100665.41;4999509;28;20073;-63
2021/11/11 04:00:31;;;;;;;23.45;14.93;;;;;;;5.44;71.73;100658.59;4999804;28;20560;-63
2021/11/11 04:03:00;;;;;;;23.73;15.20;;;;;;;5.44;71.45;100664.59;4999175;28;20406;-63
2021/11/11 04:05:31;;;;;;;27.27;15.48;;;;;;;5.43;72.15;100670.56;4999659;28;20049;-63
2021/11/11 04:08:02;;;;;;;24.13;14.00;;;;;;;5.42;71.92;100666.22;5000075;28;20088;-63
2021/11/11 04:10:31;;;;;;;22.52;15.38;;;;;;;5.41;71.90;100671.31;4999986;28;20104;-63
2021/11/11 04:13:05;;;;;;;20.33;14.93;;;;;;;5.40;71.70;100672.97;5015646;28;20034;-63
2021/11/11 04:15:36;;;;;;;19.25;13.52;;;;;;;5.39;71.67;100676.34;5015892;28;20046;-63
2021/11/11 04:18:07;;;;;;;20.67;14.05;;;;;;;5.39;71.65;100678.94;5031907;28;20049;-62
2021/11/11 04:20:35;;;;;;;20.67;14.05;;;;;;;5.39;71.79;100683.19;4999280;28;20172;-63
2021/11/11 04:23:04;;;;;;;22.15;14.27;;;;;;;5.39;72.17;100678.94;4999444;28;20033;-63
2021/11/11 04:28:47;;;;;;;25.67;15.45;;;;;;;5.36;71.37;100672.75;4994488;28;20042;-63
2021/11/11 04:31:27;;;;;;;18.85;13.10;;;;;;;5.34;71.77;100680.41;4993887;28;20085;-63
2021/11/11 04:34:02;;;;;;;23.40;14.23;;;;;;;5.35;71.92;100679.63;5015689;28;20037;-63
2021/11/11 04:47:40;;;;;;;23.15;15.55;;;;;;;5.32;71.75;100680.34;5032565;28;20120;-63
2021/11/11 05:01:28;;;;;;;22.05;14.70;;;;;;;5.24;72.23;100693.63;5031415;28;20034;-63
2021/11/11 05:03:57;;;;;;;25.33;14.30;;;;;;;5.24;71.08;100697.09;4998235;28;20038;-63
2021/11/11 05:06:28;;;;;;;20.20;12.43;;;;;;;5.22;71.60;100692.66;4998400;28;20049;-63
2021/11/11 05:09:02;;;;;;;21.75;14.02;;;;;;;5.22;71.13;100697.81;4998451;28;20100;-64
2021/11/11 05:11:36;;;;;;;21.17;13.93;;;;;;;5.22;71.60;100700.38;5014598;28;20083;-63
2021/11/11 05:14:11;;;;;;;21.70;13.70;;;;;;;5.20;71.36;100696.88;5014859;28;20065;-63
2021/11/11 05:16:39;;;;;;;23.25;14.40;;;;;;;5.20;71.37;100708.03;4998443;28;20572;-63
2021/11/11 05:19:13;;;;;;;20.30;14.35;;;;;;;5.20;71.36;100705.44;5014889;28;20045;-63
2021/11/11 05:21:47;;;;;;;;;;;;;;;5.17;71.53;100711.34;5015483;28;20038;-63
2021/11/11 05:24:18;;;;;;;22.55;14.82;;;;;;;5.16;71.15;100707.00;4997843;28;20399;-64
2021/11/11 05:26:54;;;;;;;19.98;13.50;;;;;;;5.14;71.09;100711.19;4998103;28;20084;-64
2021/11/11 05:29:22;;;;;;;23.88;15.05;;;;;;;5.12;71.80;100710.22;5014391;28;20038;-63
2021/11/11 05:31:55;;;;;;;24.02;13.30;;;;;;;5.12;71.41;100711.91;5014273;28;20061;-63
2021/11/11 05:34:22;;;;;;;25.02;14.18;;;;;;;5.11;71.46;100713.59;4997946;28;20061;-63
2021/11/11 05:36:54;;;;;;;20.95;13.18;;;;;;;5.10;71.34;100710.97;4998001;28;20041;-63
2021/11/11 05:39:31;;;;;;;20.23;13.48;;;;;;;5.08;71.62;100713.44;4997832;28;20041;-63
2021/11/11 05:42:05;;;;;;;19.02;12.63;;;;;;;5.07;71.73;100718.50;5015436;28;20038;-64
2021/11/11 05:44:36;;;;;;;20.27;12.55;;;;;;;5.07;71.23;100724.53;4997910;28;20037;-63
2021/11/11 05:47:04;;;;;;;21.02;14.48;;;;;;;5.08;71.81;100715.13;4998121;28;20064;-63
2021/11/11 05:49:38;;;;;;;18.30;12.55;;;;;;;5.08;72.01;100722.84;4997755;28;20034;-63
2021/11/11 05:52:11;;;;;;;;;;;;;;;5.06;71.24;100721.88;4997871;28;20181;-63
2021/11/11 05:54:45;;;;;;;25.40;13.80;;;;;;;5.07;71.35;100721.94;4997789;28;20340;-63
2021/11/11 05:57:20;;;;;;;27.33;15.00;;;;;;;5.06;71.28;100724.47;4997624;28;20042;-63
2021/11/11 05:59:45;;;;;;;26.10;14.55;;;;;;;5.05;71.67;100726.16;4997463;28;20100;-63
2021/11/11 06:02:20;;;;;;;20.42;13.70;;;;;;;5.05;71.95;100723.59;5013789;28;20065;-63
2021/11/11 06:04:51;;;;;;;25.48;11.82;;;;;;;5.06;71.74;100721.88;4998042;28;20044;-63
2021/11/11 06:07:24;;;;;;;22.33;13.90;;;;;;;5.05;72.08;100727.81;4997952;28;20060;-63
2021/11/11 06:09:57;;;;;;;21.25;14.88;;;;;;;5.03;71.52;100726.06;4997252;28;20030;-63
2021/11/11 06:12:31;;;;;;;23.00;14.77;;;;;;;5.04;71.68;100732.09;5013549;28;20042;-64
2021/11/11 06:15:08;;;;;;;21.38;13.25;;;;;;;5.03;71.31;100730.34;5013648;28;20037;-64
2021/11/11 06:17:43;;;;;;;22.80;13.80;;;;;;;5.02;71.27;100734.56;4997555;28;20108;-63
2021/11/11 06:20:30;;;;;;;21.45;12.93;;;;;;;5.02;71.78;100738.84;5013306;28;20041;-63
2021/11/11 06:23:04;;;;;;;20.65;13.55;;;;;;;5.01;71.53;100743.09;4997054;28;20557;-64
2021/11/11 06:25:40;;;;;;;20.20;14.18;;;;;;;4.99;70.72;100748.97;4996747;28;20125;-64
2021/11/11 06:28:14;;;;;;;23.05;13.98;;;;;;;4.98;71.28;100745.50;4997492;28;20069;-63
2021/11/11 06:30:48;;;;;;;21.73;14.07;;;;;;;4.97;71.65;100751.47;4996925;28;20030;-64
2021/11/11 06:33:22;;;;;;;24.73;14.68;;;;;;;4.97;71.22;100755.72;4996831;28;20100;-63
2021/11/11 06:35:57;;;;;;;19.50;13.95;;;;;;;4.96;71.13;100754.84;5013331;28;20057;-63
2021/11/11 06:38:28;;;;;;;24.63;15.02;;;;;;;4.96;71.40;100762.56;4997352;28;20120;-63
2021/11/11 06:40:56;;;;;;;24.25;14.68;;;;;;;4.95;71.00;100763.34;4997502;28;20057;-63
2021/11/11 06:43:27;;;;;;;25.67;14.90;;;;;;;4.95;71.44;100757.31;4996412;28;20045;-63
2021/11/11 06:45:56;;;;;;;25.73;15.43;;;;;;;4.94;71.69;100761.59;4996379;28;20056;-62
2021/11/11 06:48:28;;;;;;;29.92;15.80;;;;;;;4.93;70.90;100771.75;4996257;28;20500;-63
2021/11/11 06:50:53;;;;;;;25.35;15.05;;;;;;;4.90;71.04;100772.50;4996392;28;20053;-63
2021/11/11 06:53:22;;;;;;;22.92;13.68;;;;;;;4.90;71.21;100775.06;4996513;28;20033;-63
2021/11/11 06:55:51;;;;;;;23.05;14.43;;;;;;;4.89;71.30;100778.44;4996366;28;20057;-63
2021/11/11 06:58:23;;;;;;;22.23;14.80;;;;;;;4.87;71.17;100780.06;4996627;28;20034;-63
2021/11/11 07:00:50;;;;;;;23.88;14.00;;;;;;;4.87;71.05;100777.47;4996328;28;20042;-63
2021/11/11 07:03:22;;;;;;;22.45;14.88;;;;;;;4.86;71.12;100771.47;4996191;28;20058;-64
2021/11/11 07:06:25;;;;;;;20.27;14.13;;;;;;;4.87;71.19;100778.38;4996172;28;20041;-63
2021/11/11 07:08:56;;;;;;;24.25;14.48;;;;;;;4.87;71.17;100783.50;4996400;28;20397;-64
2021/11/11 07:11:30;;;;;;;19.10;13.07;;;;;;;4.87;71.35;100791.22;4996081;28;20104;-63
2021/11/11 07:13:58;;;;;;;22.33;14.65;;;;;;;4.87;71.14;100793.78;4996893;28;20034;-64
2021/11/11 07:16:29;;;;;;;21.27;14.52;;;;;;;4.84;71.01;100796.19;4996396;28;20058;-63
2021/11/11 07:18:58;;;;;;;23.05;15.05;;;;;;;4.82;71.27;100799.50;5012278;28;20508;-63
2021/11/11 07:21:30;;;;;;;25.60;14.35;;;;;;;4.83;71.53;100803.81;4996095;28;20034;-63
2021/11/11 07:24:00;;;;;;;23.05;14.07;;;;;;;4.82;71.12;100807.22;4996019;28;20030;-63
2021/11/11 07:26:32;;;;;;;24.27;14.93;;;;;;;4.80;71.18;100808.81;5012871;28;20041;-63
2021/11/11 07:29:03;;;;;;;24.20;14.25;;;;;;;4.77;71.07;100804.38;4995957;28;20489;-63
2021/11/11 07:31:34;;;;;;;23.83;14.27;;;;;;;4.78;71.08;100805.28;4996250;28;20034;-63
2021/11/11 07:34:03;;;;;;;23.63;15.07;;;;;;;4.79;71.11;100807.91;4995959;28;20053;-63
2021/11/11 07:36:32;;;;;;;21.73;14.00;;;;;;;4.81;71.64;100810.56;5012287;28;20116;-63
2021/11/11 07:39:02;;;;;;;24.35;15.10;;;;;;;4.81;71.56;100805.44;4995942;28;20066;-64
2021/11/11 07:41:33;;;;;;;23.92;15.52;;;;;;;4.82;71.24;100802.94;4996156;28;20033;-63
2021/11/11 07:44:04;;;;;;;24.50;14.55;;;;;;;4.81;71.08;100800.31;4996303;28;20406;-62
2021/11/11 07:46:34;;;;;;;22.52;14.70;;;;;;;4.83;71.21;100812.41;4995928;28;20121;-63
2021/11/11 07:49:02;;;;;;;25.15;13.90;;;;;;;4.83;71.06;100811.50;5012269;28;20034;-63
2021/11/11 07:51:35;;;;;;;26.60;15.25;;;;;;;4.83;71.72;100814.09;4995814;28;20026;-64
2021/11/11 07:54:04;;;;;;;23.63;15.95;;;;;;;4.82;70.92;100814.91;4996301;28;20049;-63
2021/11/11 07:56:37;;;;;;;21.25;15.32;;;;;;;4.82;71.54;100820.91;4995675;28;20034;-63
2021/11/11 07:59:08;;;;;;;23.48;15.30;;;;;;;4.82;71.42;100822.63;5013554;28;20370;-63
2021/11/11 08:01:36;;;;;;;23.52;14.93;;;;;;;4.83;70.79;100825.25;4995467;28;20069;-63
2021/11/11 08:04:13;;;;;;;21.70;14.63;;;;;;;4.83;71.67;100814.97;5012383;28;20038;-63
2021/11/11 08:06:43;;;;;;;25.92;15.75;;;;;;;4.84;71.09;100816.75;4995776;28;20033;-63
2021/11/11 08:09:15;;;;;;;25.45;14.93;;;;;;;4.84;71.26;100816.75;4995763;28;20100;-63
2021/11/11 08:11:46;;;;;;;28.63;17.55;;;;;;;4.86;71.17;100815.16;5012322;28;20125;-63
2021/11/11 08:14:15;;;;;;;26.65;16.23;;;;;;;4.87;71.74;100813.44;4995177;28;20038;-63
2021/11/11 08:16:46;;;;;;;22.15;14.00;;;;;;;4.86;71.19;100806.53;4997796;28;20037;-63
2021/11/11 08:19:16;;;;;;;26.60;17.13;;;;;;;4.90;71.57;100817.88;4999913;28;20052;-63
2021/11/11 08:21:49;;;;;;;24.23;15.07;;;;;;;4.91;71.89;100823.06;4999892;28;20037;-63
2021/11/11 08:24:20;;;;;;;25.75;17.13;;;;;;;4.93;71.62;100816.34;4999180;28;20060;-63
2021/11/11 08:26:48;;;;;;;27.23;17.58;;;;;;;4.94;71.51;100822.34;4998904;28;20060;-63
2021/11/11 08:29:19;;;;;;;26.33;17.30;;;;;;;4.95;71.47;100824.09;4999018;28;20099;-63
2021/11/11 08:31:48;;;;;;;30.00;16.42;;;;;;;4.97;71.46;100823.41;5016822;28;20029;-63
2021/11/11 08:34:17;;;;;;;28.95;16.52;;;;;;;4.99;71.90;100824.34;5015279;28;20057;-63
2021/11/11 08:36:48;;;;;;;22.55;15.82;;;;;;;5.00;71.58;100818.41;5015237;28;20033;-63
2021/11/11 08:39:20;;;;;;;25.67;16.65;;;;;;;5.02;71.33;100821.06;4998651;28;20041;-63
2021/11/11 08:41:46;;;;;;;24.80;15.93;;;;;;;5.04;71.88;100819.47;5016661;28;20037;-63
2021/11/11 08:44:14;;;;;;;25.13;15.73;;;;;;;5.05;71.60;100818.66;4998793;28;20038;-63
2021/11/11 08:46:43;;;;;;;25.67;16.75;;;;;;;5.05;71.42;100823.78;4998787;28;20120;-63
2021/11/11 08:49:14;;;;;;;25.75;17.95;;;;;;;5.08;71.56;100823.06;4999230;28;20048;-62
2021/11/11 08:51:48;;;;;;;28.33;17.42;;;;;;;5.10;72.00;100830.03;4998621;28;20076;-63
2021/11/11 08:54:19;;;;;;;28.55;16.30;;;;;;;5.11;71.95;100826.66;4998514;28;20029;-62
2021/11/11 08:56:48;;;;;;;25.08;16.90;;;;;;;5.13;72.22;100822.47;5016409;28;20076;-63
2021/11/11 08:59:21;;;;;;;30.55;17.10;;;;;;;5.13;71.82;100813.91;4998549;28;20049;-62
2021/11/11 09:01:51;;;;;;;31.45;17.17;;;;;;;5.16;71.78;100825.22;4998002;28;20069;-63
2021/11/11 09:04:21;;;;;;;31.40;17.08;;;;;;;5.18;72.19;100830.41;4998391;28;20045;-63
2021/11/11 09:06:55;;;;;;;25.95;16.80;;;;;;;5.21;71.72;100833.16;4998608;28;20045;-64
2021/11/11 09:09:21;;;;;;;;;;;;;;;5.22;72.31;100829.78;5016612;28;20041;-64
2021/11/11 09:11:55;;;;;;;26.00;16.80;;;;;;;5.24;72.19;100827.28;5014798;28;19913;-64
2021/11/11 09:14:20;;;;;;;;;;;;;;;5.25;71.46;100827.38;5015979;28;20038;-63
2021/11/11 09:16:49;;;;;;;26.40;16.98;;;;;;;5.24;72.22;100830.75;4998569;28;19913;-63
2021/11/11 09:19:17;;;;;;;27.85;17.27;;;;;;;5.29;72.24;100833.53;5014649;28;20397;-63
2021/11/11 09:21:45;;;;;;;26.92;18.20;;;;;;;5.29;72.07;100831.88;5015924;28;20044;-63
2021/11/11 09:24:13;;;;;;;27.98;17.40;;;;;;;5.31;71.98;100825.09;5015529;28;20033;-63
2021/11/11 09:26:40;;;;;;;29.23;18.48;;;;;;;5.33;72.34;100823.47;5031011;28;20065;-63
2021/11/11 09:29:07;;;;;;;33.55;17.13;;;;;;;5.34;72.44;100819.22;4997691;28;20096;-63
2021/11/11 09:31:38;;;;;;;26.95;18.23;;;;;;;5.37;71.81;100816.81;5014059;28;20042;-63
2021/11/11 09:34:09;;;;;;;27.30;17.42;;;;;;;5.40;72.20;100816.06;4998342;28;20045;-65
2021/11/11 09:36:40;;;;;;;27.98;18.13;;;;;;;5.41;72.43;100811.00;4998076;28;20076;-63
2021/11/11 09:39:09;;;;;;;29.95;18.80;;;;;;;5.44;72.37;100806.00;5014630;28;20133;-63
2021/11/11 09:41:42;;;;;;;28.25;17.73;;;;;;;5.46;72.19;100796.69;4997982;28;20103;-63
2021/11/11 09:44:08;;;;;;;34.90;19.50;;;;;;;5.48;71.96;100797.66;5013870;28;20132;-63
2021/11/11 09:46:34;;;;;;;27.40;17.67;;;;;;;5.53;72.19;100807.28;5015579;28;20076;-63
2021/11/11 09:49:02;;;;;;;31.65;18.17;;;;;;;5.54;72.19;100791.91;5013760;28;20547;-63
2021/11/11 09:51:28;;;;;;;29.88;17.33;;;;;;;5.56;72.45;100795.44;4997632;28;20404;-64
2021/11/11 09:59:37;;;;;;;31.65;18.80;;;;;;;5.67;72.59;100795.06;5030353;28;20124;-63
2021/11/11 10:02:04;;;;;;;31.98;19.33;;;;;;;5.71;72.24;100800.44;5013515;28;20041;-63
2021/11/11 10:05:05;;;;;;;31.13;20.25;;;;;;;5.76;72.65;100796.41;4997362;28;20057;-63
2021/11/11 10:07:31;;;;;;;32.00;20.50;;;;;;;5.79;71.92;100791.41;5014719;28;20428;-63
2021/11/11 10:10:00;;;;;;;30.52;19.52;;;;;;;5.81;72.20;100798.31;5014736;28;20528;-63
2021/11/11 10:12:29;;;;;;;28.70;18.55;;;;;;;5.84;71.88;100801.91;4997090;28;20060;-63
2021/11/11 10:15:10;;;;;;;28.88;19.05;;;;;;;5.85;72.01;100801.09;4997068;28;20582;-63
2021/11/11 10:17:43;;;;;;;36.63;22.38;;;;;;;5.89;72.23;100796.97;5013346;28;20116;-63
2021/11/11 10:20:14;;;;;;;32.47;20.20;;;;;;;5.92;72.57;100802.28;5013782;28;20128;-64
2021/11/11 10:22:43;;;;;;;31.80;18.73;;;;;;;5.92;72.19;100785.13;4997428;28;20042;-63
2021/11/11 10:25:18;;;;;;;32.22;19.25;;;;;;;5.96;72.11;100791.31;5013251;28;20125;-63
2021/11/11 10:27:52;;;;;;;32.13;20.10;;;;;;;5.98;72.57;100793.94;4997233;28;20481;-63
2021/11/11 10:30:25;;;;;;;34.28;20.65;;;;;;;6.01;72.15;100796.72;4997402;28;20041;-63
2021/11/11 10:33:09;;;;;;;34.20;19.90;;;;;;;6.04;72.34;100796.84;4996646;28;20037;-63
2021/11/11 10:35:38;;;;;;;29.03;19.40;;;;;;;6.06;72.06;100790.09;5013660;28;20033;-63
2021/11/11 10:38:07;;;;;;;34.70;21.15;;;;;;;6.11;72.49;100796.31;5014377;28;20096;-64
2021/11/11 10:40:52;;;;;;;31.95;20.83;;;;;;;6.13;71.95;100786.09;4996115;28;20516;-63
2021/11/11 10:43:28;;;;;;;32.65;21.60;;;;;;;6.15;72.40;100782.78;5012701;28;20030;-63
2021/11/11 10:45:56;;;;;;;30.33;20.63;;;;;;;6.16;72.14;100778.50;4996724;28;20405;-63
2021/11/11 10:48:26;;;;;;;37.33;22.88;;;;;;;6.17;72.09;100772.53;4996717;28;20046;-63
2021/11/11 10:51:00;;;;;;;38.03;21.40;;;;;;;6.17;72.04;100760.56;4996445;28;20034;-63
2021/11/11 10:53:29;;;;;;;33.00;21.10;;;;;;;6.19;71.89;100763.19;5013210;28;20386;-63
2021/11/11 10:56:01;;;;;;;33.17;22.13;;;;;;;6.20;72.49;100764.97;4996329;28;20057;-63
2021/11/11 10:58:35;;;;;;;33.85;21.08;;;;;;;6.22;71.81;100758.19;4996416;28;20400;-64
2021/11/11 11:01:27;;;;;;;31.48;21.33;;;;;;;6.25;72.38;100763.50;5012883;28;20034;-63
2021/11/11 11:03:57;;;;;;;37.65;21.92;;;;;;;6.27;72.10;100764.44;4997013;28;20135;-63
2021/11/11 11:06:23;;;;;;;51.78;22.27;;;;;;;6.30;72.46;100763.69;5012680;28;20034;-63
2021/11/11 11:08:54;;;;;;;56.30;24.58;;;;;;;6.32;72.55;100762.94;5012763;28;20030;-64
2021/11/11 11:11:19;;;;;;;47.88;21.77;;;;;;;6.34;71.89;100763.88;5012352;28;20037;-63
2021/11/11 11:13:50;;;;;;;48.58;23.63;;;;;;;6.36;72.18;100774.28;5012646;28;20103;-63
2021/11/11 11:16:26;;;;;;;56.08;22.65;;;;;;;6.37;72.37;100769.19;5013556;28;20064;-63
2021/11/11 11:19:11;;;;;;;41.72;22.85;;;;;;;6.38;72.25;100762.34;5014093;28;20092;-64
2021/11/11 11:21:46;;;;;;;38.50;22.08;;;;;;;6.41;72.50;100767.63;4996094;28;20520;-63
2021/11/11 11:24:19;;;;;;;36.50;20.85;;;;;;;6.43;72.05;100767.72;4996163;28;20034;-64
2021/11/11 11:26:51;;;;;;;40.50;22.98;;;;;;;6.46;71.85;100773.88;4996818;28;20046;-63
2021/11/11 11:32:10;;;;;;;31.13;20.52;;;;;;;6.49;71.87;100763.72;5028732;28;20556;-64
2021/11/11 11:34:45;;;;;;;43.00;22.42;;;;;;;6.51;71.71;100762.09;4995995;28;20518;-63
2021/11/11 11:37:13;;;;;;;35.78;21.95;;;;;;;6.51;72.12;100746.63;5011823;28;20038;-63
2021/11/11 11:39:49;;;;;;;38.97;21.95;;;;;;;6.55;71.98;100763.09;4996177;28;20501;-64
2021/11/11 11:42:25;;;;;;;43.33;22.38;;;;;;;6.57;71.69;100761.47;4996290;28;20038;-64
2021/11/11 11:45:04;;;;;;;35.42;22.38;;;;;;;6.60;72.34;100761.59;4995891;28;20030;-64
2021/11/11 11:47:46;;;;;;;37.55;21.08;;;;;;;6.64;71.54;100765.19;4996710;28;20045;-63
2021/11/11 11:50:17;;;;;;;37.00;22.10;;;;;;;6.65;71.91;100757.50;4996146;28;20440;-64
2021/11/11 11:52:50;;;;;;;32.88;20.80;;;;;;;6.68;71.96;100756.78;5016281;28;20089;-63
2021/11/11 11:55:24;;;;;;;30.27;20.88;;;;;;;6.71;72.14;100754.31;4999967;28;20396;-63
2021/11/11 12:00:44;;;;;;;37.45;22.90;;;;;;;6.74;71.99;100743.28;5032418;28;20130;-64
2021/11/11 12:12:21;;;;;;;28.58;20.20;;;;;;;6.83;71.56;100749.72;5017035;28;20056;-63
2021/11/11 12:39:37;;;;;;;32.80;18.85;;;;;;;6.83;71.82;100728.19;5031790;28;20057;-64
2021/11/11 12:42:09;;;;;;;34.45;19.58;;;;;;;6.84;72.02;100717.09;5015174;28;20026;-63
2021/11/11 12:44:54;;;;;;;33.75;19.23;;;;;;;6.84;72.07;100710.25;4998714;28;20132;-63
2021/11/11 12:47:47;;;;;;;31.95;19.13;;;;;;;6.85;71.70;100711.13;4998893;28;20037;-63
2021/11/11 12:50:43;;;;;;;35.28;19.23;;;;;;;6.85;72.12;100705.97;4999524;28;20068;-63